createdAt,value
2022-12-18T00:01:09.069Z,100646.78
2022-12-18T00:03:37.103Z,100648.59
2022-12-18T00:06:04.186Z,100648.56
2022-12-18T00:08:30.812Z,100649.38
2022-12-18T00:11:08.226Z,100654.56
2022-12-18T00:13:36.481Z,100652.91
2022-12-18T00:16:08.976Z,100660.59
2022-12-18T00:18:36.140Z,100667.50
2022-12-18T00:21:05.460Z,100670.09
2022-12-18T00:23:33.042Z,100670.09
2022-12-18T00:26:00.607Z,100679.75
2022-12-18T00:28:27.247Z,100677.97
2022-12-18T00:31:05.111Z,100683.25
2022-12-18T00:33:32.276Z,100681.56
2022-12-18T00:36:02.964Z,100684.19
2022-12-18T00:38:29.881Z,100681.41
2022-12-18T00:40:56.596Z,100686.50
2022-12-18T00:43:23.180Z,100689.91
2022-12-18T00:45:50.266Z,100696.88
2022-12-18T00:48:16.857Z,100703.03
2022-12-18T00:50:43.806Z,100697.09
2022-12-18T00:53:10.399Z,100706.56
2022-12-18T00:55:39.818Z,100704.78
2022-12-18T00:58:06.409Z,100710.81
2022-12-18T01:00:33.048Z,100706.44
2022-12-18T01:02:59.648Z,100706.47
2022-12-18T01:05:26.545Z,100704.81
2022-12-18T01:07:53.228Z,100706.38
2022-12-18T01:10:20.333Z,100702.88
2022-12-18T01:12:46.950Z,100697.72
2022-12-18T01:15:15.283Z,100699.41
2022-12-18T01:17:42.544Z,100700.13
2022-12-18T01:20:11.174Z,100702.63
2022-12-18T01:22:38.872Z,100709.72
2022-12-18T01:25:08.128Z,100715.00
2022-12-18T01:27:35.225Z,100722.94
2022-12-18T01:30:05.043Z,100722.81
2022-12-18T01:32:32.491Z,100735.03
2022-12-18T01:34:59.475Z,100722.69
2022-12-18T01:37:27.404Z,100719.94
2022-12-18T01:39:55.294Z,100715.53
2022-12-18T01:42:22.692Z,100724.34
2022-12-18T01:45:22.476Z,100722.75
2022-12-18T01:47:52.086Z,100727.91
2022-12-18T01:50:31.496Z,100725.25
2022-12-18T01:53:03.279Z,100724.50
2022-12-18T01:55:33.659Z,100715.72
2022-12-18T01:58:01.711Z,100725.25
2022-12-18T02:00:29.101Z,100717.41
2022-12-18T02:02:56.047Z,100719.19
2022-12-18T02:05:42.076Z,100727.78
2022-12-18T02:08:15.340Z,100726.72
2022-12-18T02:11:06.050Z,100730.06
2022-12-18T02:13:44.692Z,100730.81
2022-12-18T02:16:38.576Z,100724.75
2022-12-18T02:19:30.256Z,100719.56
2022-12-18T02:22:02.311Z,100716.97
2022-12-18T02:24:46.210Z,100728.28
2022-12-18T02:27:14.375Z,100724.06
2022-12-18T02:29:50.585Z,100732.84
2022-12-18T02:32:27.614Z,100724.81
2022-12-18T02:34:57.291Z,100733.47
2022-12-18T02:37:28.871Z,100725.63
2022-12-18T02:39:58.045Z,100725.53
2022-12-18T02:42:25.483Z,100735.19
2022-12-18T02:44:53.305Z,100741.16
2022-12-18T02:47:32.324Z,100743.97
2022-12-18T02:49:58.822Z,100741.31
2022-12-18T02:52:29.311Z,100743.09
2022-12-18T02:55:10.343Z,100743.06
2022-12-18T02:57:38.454Z,100737.94
2022-12-18T03:00:11.343Z,100737.16
2022-12-18T03:02:56.795Z,100730.06
2022-12-18T03:05:39.890Z,100736.25
2022-12-18T03:08:11.409Z,100733.66
2022-12-18T03:10:45.934Z,100735.31
2022-12-18T03:13:31.032Z,100737.22
2022-12-18T03:16:00.006Z,100740.63
2022-12-18T03:18:34.226Z,100738.78
2022-12-18T03:21:06.129Z,100743.13
2022-12-18T03:23:41.843Z,100741.44
2022-12-18T03:26:13.048Z,100744.09
2022-12-18T03:28:46.881Z,100743.56
2022-12-18T03:31:16.042Z,100741.06
2022-12-18T03:33:56.479Z,100738.53
2022-12-18T03:36:29.978Z,100753.53
2022-12-18T03:38:59.596Z,100753.50
2022-12-18T03:41:53.701Z,100762.09
2022-12-18T03:44:52.821Z,100759.44
2022-12-18T03:47:42.416Z,100758.41
2022-12-18T03:50:21.800Z,100767.06
2022-12-18T03:53:08.555Z,100756.59
2022-12-18T03:55:36.961Z,100760.94
2022-12-18T03:58:08.613Z,100753.91
2022-12-18T04:00:54.075Z,100758.28
2022-12-18T04:03:26.133Z,100765.97
2022-12-18T04:05:56.258Z,100759.81
2022-12-18T04:08:24.158Z,100759.78
2022-12-18T04:11:02.958Z,100754.72
2022-12-18T04:13:34.969Z,100762.34
2022-12-18T04:16:03.371Z,100775.50
2022-12-18T04:18:31.135Z,100775.50
2022-12-18T04:20:59.760Z,100773.59
2022-12-18T04:23:26.659Z,100768.22
2022-12-18T04:25:56.879Z,100771.63
2022-12-18T04:28:37.837Z,100777.69
2022-12-18T04:31:04.989Z,100776.03
2022-12-18T04:33:31.698Z,100766.34
2022-12-18T04:35:59.041Z,100775.03
2022-12-18T04:38:26.170Z,100779.50
2022-12-18T04:41:01.644Z,100788.06
2022-12-18T04:43:28.381Z,100782.03
2022-12-18T04:45:54.994Z,100786.41
2022-12-18T04:48:21.772Z,100789.81
2022-12-18T04:50:49.011Z,100788.88
2022-12-18T04:53:15.665Z,100791.59
2022-12-18T04:55:42.194Z,100790.69
2022-12-18T04:58:08.812Z,100783.69
2022-12-18T05:00:36.451Z,100775.84
2022-12-18T05:03:03.880Z,100780.31
2022-12-18T05:05:30.508Z,100782.97
2022-12-18T05:07:57.069Z,100775.91
2022-12-18T05:10:23.645Z,100775.88
2022-12-18T05:13:00.962Z,100784.69
2022-12-18T05:15:32.821Z,100786.56
2022-12-18T05:18:00.119Z,100781.41
2022-12-18T05:20:27.484Z,100777.94
2022-12-18T05:22:55.042Z,100788.28
2022-12-18T05:25:22.099Z,100785.63
2022-12-18T05:27:48.708Z,100794.34
2022-12-18T05:30:16.278Z,100790.09
2022-12-18T05:32:43.153Z,100781.50
2022-12-18T05:35:11.659Z,100791.78
2022-12-18T05:37:42.991Z,100787.53
2022-12-18T05:40:10.647Z,100784.84
2022-12-18T05:42:37.466Z,100788.09
2022-12-18T05:45:05.040Z,100787.16
2022-12-18T05:47:31.678Z,100793.97
2022-12-18T05:49:58.351Z,100779.28
2022-12-18T05:52:25.003Z,100791.41
2022-12-18T05:54:51.617Z,100797.47
2022-12-18T05:57:18.497Z,100791.22
2022-12-18T05:59:45.104Z,100801.66
2022-12-18T06:02:11.802Z,100802.38
2022-12-18T06:04:38.534Z,100799.84
2022-12-18T06:07:05.140Z,100800.78
2022-12-18T06:09:32.003Z,100802.41
2022-12-18T06:11:58.573Z,100797.16
2022-12-18T06:14:25.082Z,100802.31
2022-12-18T06:16:53.236Z,100807.56
2022-12-18T06:19:19.821Z,100806.06
2022-12-18T06:21:46.421Z,100809.31
2022-12-18T06:24:13.031Z,100810.19
2022-12-18T06:26:40.024Z,100808.59
2022-12-18T06:29:06.773Z,100817.31
2022-12-18T06:31:33.581Z,100811.31
2022-12-18T06:34:02.681Z,100816.53
2022-12-18T06:36:29.813Z,100824.53
2022-12-18T06:38:58.465Z,100825.38
2022-12-18T06:41:25.281Z,100829.00
2022-12-18T06:43:55.579Z,100822.31
2022-12-18T06:46:24.889Z,100820.56
2022-12-18T06:48:51.575Z,100837.16
2022-12-18T06:51:19.860Z,100834.63
2022-12-18T06:53:46.511Z,100838.06
2022-12-18T06:56:13.053Z,100835.41
2022-12-18T06:58:40.183Z,100835.34
2022-12-18T07:01:09.556Z,100839.56
2022-12-18T07:03:37.072Z,100836.97
2022-12-18T07:06:04.438Z,100843.72
2022-12-18T07:08:32.260Z,100847.09
2022-12-18T07:10:59.151Z,100853.16
2022-12-18T07:13:25.922Z,100860.84
2022-12-18T07:15:52.478Z,100856.53
2022-12-18T07:18:19.023Z,100859.22
2022-12-18T07:20:45.697Z,100854.16
2022-12-18T07:23:12.786Z,100853.16
2022-12-18T07:25:40.399Z,100851.50
2022-12-18T07:28:07.003Z,100854.84
2022-12-18T07:30:33.877Z,100853.97
2022-12-18T07:33:00.559Z,100851.41
2022-12-18T07:35:27.136Z,100855.09
2022-12-18T07:37:53.673Z,100868.97
2022-12-18T07:40:20.288Z,100869.94
2022-12-18T07:42:46.835Z,100873.53
2022-12-18T07:45:13.436Z,100872.69
2022-12-18T07:47:42.111Z,100876.34
2022-12-18T07:50:09.768Z,100882.44
2022-12-18T07:52:36.898Z,100880.72
2022-12-18T07:55:04.149Z,100880.03
2022-12-18T08:00:17.772Z,100881.19
2022-12-18T08:02:44.858Z,100880.47
2022-12-18T08:05:14.129Z,100878.06
2022-12-18T08:07:41.001Z,100872.13
2022-12-18T08:10:08.154Z,100866.06
2022-12-18T08:12:35.290Z,100864.44
2022-12-18T08:15:02.858Z,100871.50
2022-12-18T08:17:32.049Z,100862.03
2022-12-18T08:19:59.692Z,100849.88
2022-12-18T08:22:27.037Z,100852.47
2022-12-18T08:24:54.427Z,100848.13
2022-12-18T08:27:29.278Z,100848.94
2022-12-18T08:29:58.982Z,100859.38
2022-12-18T08:32:28.979Z,100859.34
2022-12-18T08:34:58.106Z,100861.88
2022-12-18T08:37:30.280Z,100864.47
2022-12-18T08:39:58.631Z,100865.31
2022-12-18T08:42:45.606Z,100865.38
2022-12-18T08:45:12.362Z,100863.56
2022-12-18T08:47:39.312Z,100867.03
2022-12-18T08:50:07.236Z,100857.38
2022-12-18T08:52:35.452Z,100857.34
2022-12-18T08:55:04.195Z,100857.34
2022-12-18T08:57:31.085Z,100867.69
2022-12-18T08:59:57.731Z,100873.75
2022-12-18T09:02:24.428Z,100877.22
2022-12-18T09:04:56.945Z,100870.88
2022-12-18T09:07:25.142Z,100865.44
2022-12-18T09:09:52.141Z,100867.78
2022-12-18T09:12:20.651Z,100875.34
2022-12-18T09:14:48.556Z,100873.16
2022-12-18T09:17:16.533Z,100872.53
2022-12-18T09:19:43.781Z,100884.78
2022-12-18T09:22:11.782Z,100886.72
2022-12-18T09:24:40.084Z,100889.81
2022-12-18T09:27:07.477Z,100896.09
2022-12-18T09:29:35.199Z,100898.00
2022-12-18T09:32:03.870Z,100906.53
2022-12-18T09:34:31.090Z,100900.47
2022-12-18T09:36:58.263Z,100905.69
2022-12-18T09:39:25.359Z,100904.06
2022-12-18T09:41:58.639Z,100902.97
2022-12-18T09:44:45.124Z,100897.69
2022-12-18T09:47:21.449Z,100901.06
2022-12-18T09:49:53.951Z,100894.56
2022-12-18T09:52:37.499Z,100890.53
2022-12-18T09:55:12.981Z,100890.22
2022-12-18T09:57:47.450Z,100877.97
2022-12-18T10:00:24.219Z,100879.25
2022-12-18T10:03:00.788Z,100871.91
2022-12-18T10:05:37.381Z,100867.31
2022-12-18T10:08:09.031Z,100863.91
2022-12-18T10:10:53.138Z,100858.09
2022-12-18T10:13:41.603Z,100838.53
2022-12-18T10:16:23.464Z,100834.22
2022-12-18T10:19:14.399Z,100830.81
2022-12-18T10:21:57.106Z,100827.94
2022-12-18T10:24:43.446Z,100834.72
2022-12-18T10:27:23.206Z,100832.25
2022-12-18T10:29:50.065Z,100823.31
2022-12-18T10:32:26.731Z,100815.91
2022-12-18T10:35:00.120Z,100817.00
2022-12-18T10:37:29.797Z,100803.16
2022-12-18T10:40:08.070Z,100798.75
2022-12-18T10:42:34.842Z,100802.09
2022-12-18T10:45:21.618Z,100789.38
2022-12-18T10:47:50.427Z,100781.47
2022-12-18T10:50:53.994Z,100783.47
2022-12-18T10:53:22.603Z,100775.03
2022-12-18T10:55:49.963Z,100776.91
2022-12-18T10:58:30.465Z,100781.50
2022-12-18T11:01:12.006Z,100789.59
2022-12-18T11:03:43.350Z,100778.47
2022-12-18T11:06:16.532Z,100783.53
2022-12-18T11:08:45.420Z,100781.53
2022-12-18T11:11:23.345Z,100778.06
2022-12-18T11:14:22.015Z,100773.13
2022-12-18T11:17:24.164Z,100768.66
2022-12-18T11:19:41.958Z,100769.69
2022-12-18T11:22:25.251Z,100763.72
2022-12-18T11:25:56.876Z,100765.25
2022-12-18T11:28:05.470Z,100756.38
2022-12-18T11:30:37.588Z,100769.00
2022-12-18T11:33:09.465Z,100773.69
2022-12-18T11:35:39.380Z,100780.84
2022-12-18T11:38:26.353Z,100772.94
2022-12-18T11:41:00.029Z,100774.31
2022-12-18T11:43:32.456Z,100770.81
2022-12-18T11:46:17.667Z,100767.38
2022-12-18T11:49:11.015Z,100769.38
2022-12-18T11:52:27.728Z,100775.13
2022-12-18T11:54:59.754Z,100774.31
2022-12-18T11:57:57.327Z,100782.09
2022-12-18T12:00:24.861Z,100783.22
2022-12-18T12:03:09.722Z,100777.06
2022-12-18T12:05:45.505Z,100779.22
2022-12-18T12:08:24.667Z,100783.59
2022-12-18T12:11:42.415Z,100787.16
2022-12-18T12:14:11.811Z,100786.13
2022-12-18T12:16:56.829Z,100790.59
2022-12-18T12:19:29.760Z,100793.31
2022-12-18T12:22:14.732Z,100795.31
2022-12-18T12:24:55.947Z,100788.19
2022-12-18T12:27:35.408Z,100787.50
2022-12-18T12:30:01.966Z,100790.72
2022-12-18T12:32:36.971Z,100804.88
2022-12-18T12:35:18.983Z,100803.66
2022-12-18T12:38:04.119Z,100816.06
2022-12-18T12:40:56.646Z,100812.44
2022-12-18T12:43:28.115Z,100812.69
2022-12-18T12:46:02.551Z,100825.91
2022-12-18T12:48:35.296Z,100824.31
2022-12-18T12:51:09.276Z,100816.56
2022-12-18T12:53:40.164Z,100814.72
2022-12-18T12:56:11.081Z,100811.09
2022-12-18T12:59:00.403Z,100805.91
2022-12-18T13:01:43.619Z,100804.19
2022-12-18T13:04:42.702Z,100795.41
2022-12-18T13:07:47.217Z,100797.47
2022-12-18T13:10:23.814Z,100798.50
2022-12-18T13:13:00.606Z,100794.78
2022-12-18T13:15:49.295Z,100794.22
2022-12-18T13:18:24.837Z,100790.72
2022-12-18T13:21:19.964Z,100793.69
2022-12-18T13:23:46.964Z,100798.06
2022-12-18T13:26:26.315Z,100800.88
2022-12-18T13:28:57.008Z,100796.72
2022-12-18T13:31:42.174Z,100801.06
2022-12-18T13:34:41.912Z,100803.22
2022-12-18T13:37:33.681Z,100793.75
2022-12-18T13:40:00.391Z,100795.25
2022-12-18T13:42:56.648Z,100795.25
2022-12-18T13:45:42.002Z,100794.28
2022-12-18T13:48:24.368Z,100794.16
2022-12-18T13:50:55.982Z,100789.84
2022-12-18T13:53:51.577Z,100791.38
2022-12-18T13:56:19.414Z,100785.50
2022-12-18T13:59:03.841Z,100783.63
2022-12-18T14:01:30.524Z,100791.56
2022-12-18T14:04:13.823Z,100784.56
2022-12-18T14:06:40.675Z,100785.50
2022-12-18T14:09:11.361Z,100791.91
2022-12-18T14:11:39.974Z,100798.84
2022-12-18T14:14:08.399Z,100802.59
2022-12-18T14:16:35.355Z,100799.88
2022-12-18T14:19:08.708Z,100804.38
2022-12-18T14:21:41.586Z,100796.53
2022-12-18T14:24:22.522Z,100779.19
2022-12-18T14:26:51.157Z,100787.16
2022-12-18T14:29:31.823Z,100781.72
2022-12-18T14:32:11.806Z,100780.00
2022-12-18T14:34:41.771Z,100768.69
2022-12-18T14:37:12.592Z,100772.19
2022-12-18T14:39:40.068Z,100765.38
2022-12-18T14:42:06.965Z,100759.31
2022-12-18T14:44:44.250Z,100764.56
2022-12-18T14:47:18.565Z,100766.28
2022-12-18T14:49:45.470Z,100774.25
2022-12-18T14:52:38.603Z,100774.19
2022-12-18T14:55:05.662Z,100769.97
2022-12-18T14:57:38.768Z,100777.00
2022-12-18T15:00:20.224Z,100783.94
2022-12-18T15:02:51.903Z,100782.25
2022-12-18T15:05:28.450Z,100785.09
2022-12-18T15:07:57.623Z,100792.09
2022-12-18T15:10:32.480Z,100786.09
2022-12-18T15:13:04.713Z,100778.34
2022-12-18T15:15:34.758Z,100773.97
2022-12-18T15:18:04.916Z,100769.66
2022-12-18T15:20:33.964Z,100776.78
2022-12-18T15:23:00.593Z,100774.13
2022-12-18T15:25:37.769Z,100772.31
2022-12-18T15:28:16.520Z,100771.53
2022-12-18T15:31:00.021Z,100775.88
2022-12-18T15:33:32.913Z,100778.53
2022-12-18T15:36:02.940Z,100777.66
2022-12-18T15:38:29.873Z,100767.13
2022-12-18T15:40:56.634Z,100758.44
2022-12-18T15:43:37.434Z,100762.84
2022-12-18T15:46:16.749Z,100765.44
2022-12-18T15:48:46.507Z,100762.88
2022-12-18T15:51:17.298Z,100759.38
2022-12-18T15:53:45.533Z,100752.44
2022-12-18T15:56:31.713Z,100753.25
2022-12-18T15:58:58.399Z,100753.25
2022-12-18T16:01:27.599Z,100757.66
2022-12-18T16:03:54.998Z,100754.13
2022-12-18T16:06:22.941Z,100751.41
2022-12-18T16:08:49.675Z,100747.06
2022-12-18T16:11:44.119Z,100745.38
2022-12-18T16:14:31.730Z,100740.97
2022-12-18T16:17:04.188Z,100744.50
2022-12-18T16:19:31.129Z,100738.41
2022-12-18T16:21:59.569Z,100728.69
2022-12-18T16:24:29.191Z,100734.84
2022-12-18T16:26:58.614Z,100728.69
2022-12-18T16:29:28.479Z,100740.03
2022-12-18T16:31:56.464Z,100739.09
2022-12-18T16:34:28.794Z,100731.22
2022-12-18T16:37:05.492Z,100726.88
2022-12-18T16:39:36.763Z,100726.91
2022-12-18T16:42:06.315Z,100732.88
2022-12-18T16:44:34.444Z,100734.66
2022-12-18T16:47:03.057Z,100724.19
2022-12-18T16:49:30.604Z,100721.56
2022-12-18T16:51:57.539Z,100720.59
2022-12-18T16:54:30.304Z,100727.50
2022-12-18T16:56:57.211Z,100724.91
2022-12-18T16:59:24.731Z,100724.06
2022-12-18T17:01:53.879Z,100720.63
2022-12-18T17:04:20.952Z,100719.75
2022-12-18T17:06:52.304Z,100717.97
2022-12-18T17:09:25.505Z,100713.66
2022-12-18T17:11:54.450Z,100710.94
2022-12-18T17:14:25.037Z,100705.72
2022-12-18T17:17:19.205Z,100706.59
2022-12-18T17:19:42.439Z,100705.53
2022-12-18T17:22:09.944Z,100706.47
2022-12-18T17:24:37.754Z,100717.00
2022-12-18T17:27:05.897Z,100701.22
2022-12-18T17:29:32.719Z,100699.56
2022-12-18T17:32:00.451Z,100696.88
2022-12-18T17:34:29.780Z,100690.56
2022-12-18T17:36:57.630Z,100693.25
2022-12-18T17:39:24.390Z,100688.84
2022-12-18T17:41:51.072Z,100693.38
2022-12-18T17:44:17.983Z,100696.69
2022-12-18T17:46:45.975Z,100691.47
2022-12-18T17:49:13.950Z,100689.66
2022-12-18T17:51:43.009Z,100684.56
2022-12-18T17:54:10.896Z,100683.56
2022-12-18T17:56:38.459Z,100670.63
2022-12-18T17:59:05.371Z,100669.59
2022-12-18T18:01:32.251Z,100684.34
2022-12-18T18:04:00.342Z,100677.41
2022-12-18T18:06:27.528Z,100671.25
2022-12-18T18:08:54.627Z,100677.41
2022-12-18T18:11:41.670Z,100671.34
2022-12-18T18:14:16.536Z,100677.38
2022-12-18T18:16:49.828Z,100671.22
2022-12-18T18:19:19.655Z,100659.00
2022-12-18T18:21:47.717Z,100667.63
2022-12-18T18:24:16.656Z,100683.47
2022-12-18T18:26:43.668Z,100674.78
2022-12-18T18:29:15.470Z,100675.47
2022-12-18T18:31:42.525Z,100659.00
2022-12-18T18:34:18.409Z,100661.56
2022-12-18T18:36:46.278Z,100651.78
2022-12-18T18:39:14.209Z,100644.75
2022-12-18T18:41:41.411Z,100639.50
2022-12-18T18:44:13.281Z,100644.75
2022-12-18T18:46:40.942Z,100642.06
2022-12-18T18:49:07.554Z,100643.00
2022-12-18T18:51:35.211Z,100637.78
2022-12-18T18:54:02.280Z,100636.84
2022-12-18T18:59:16.456Z,100621.84
2022-12-18T19:01:43.370Z,100615.66
2022-12-18T19:04:10.081Z,100625.28
2022-12-18T19:06:38.337Z,100627.75
2022-12-18T19:09:06.681Z,100619.22
2022-12-18T19:11:52.138Z,100607.94
2022-12-18T19:14:18.851Z,100599.13
2022-12-18T19:16:49.992Z,100596.41
2022-12-18T19:19:20.998Z,100599.00
2022-12-18T19:21:48.027Z,100590.16
2022-12-18T19:24:16.118Z,100596.06
2022-12-18T19:26:42.849Z,100583.81
2022-12-18T19:29:12.052Z,100583.00
2022-12-18T19:31:40.499Z,100589.16
2022-12-18T19:34:07.866Z,100584.75
2022-12-18T19:36:37.998Z,100582.06
2022-12-18T19:39:11.465Z,100564.53
2022-12-18T19:41:38.914Z,100574.25
2022-12-18T19:44:07.558Z,100564.56
2022-12-18T19:46:35.927Z,100556.69
2022-12-18T19:49:02.972Z,100561.03
2022-12-18T19:51:31.624Z,100560.25
2022-12-18T19:54:01.732Z,100554.00
2022-12-18T19:56:33.787Z,100548.69
2022-12-18T19:59:02.923Z,100540.66
2022-12-18T20:01:30.850Z,100543.41
2022-12-18T20:03:58.901Z,100544.22
2022-12-18T20:06:27.861Z,100534.44
2022-12-18T20:08:59.560Z,100535.31
2022-12-18T20:11:29.832Z,100541.53
2022-12-18T20:13:57.547Z,100540.56
2022-12-18T20:16:27.194Z,100542.19
2022-12-18T20:18:53.896Z,100551.66
2022-12-18T20:21:21.162Z,100545.59
2022-12-18T20:23:47.857Z,100534.91
2022-12-18T20:26:14.674Z,100537.66
2022-12-18T20:28:42.273Z,100540.25
2022-12-18T20:31:13.668Z,100543.59
2022-12-18T20:33:42.614Z,100543.66
2022-12-18T20:36:13.802Z,100538.56
2022-12-18T20:38:41.395Z,100547.06
2022-12-18T20:41:11.745Z,100533.06
2022-12-18T20:43:39.534Z,100522.44
2022-12-18T20:46:09.466Z,100522.31
2022-12-18T20:48:36.597Z,100531.88
2022-12-18T20:51:14.116Z,100521.41
2022-12-18T20:53:42.075Z,100519.56
2022-12-18T20:56:12.509Z,100510.81
2022-12-18T20:58:39.164Z,100496.59
2022-12-18T21:01:17.052Z,100487.06
2022-12-18T21:03:45.968Z,100495.75
2022-12-18T21:06:14.106Z,100493.84
2022-12-18T21:08:41.061Z,100497.53
2022-12-18T21:11:38.468Z,100510.34
2022-12-18T21:14:20.965Z,100494.44
2022-12-18T21:16:48.028Z,100504.25
2022-12-18T21:19:17.745Z,100516.63
2022-12-18T21:21:45.058Z,100511.22
2022-12-18T21:24:12.175Z,100508.63
2022-12-18T21:26:45.099Z,100500.72
2022-12-18T21:29:14.133Z,100507.75
2022-12-18T21:31:41.845Z,100510.59
2022-12-18T21:34:13.987Z,100510.41
2022-12-18T21:36:40.755Z,100497.47
2022-12-18T21:39:07.596Z,100497.31
2022-12-18T21:41:52.894Z,100502.50
2022-12-18T21:44:22.070Z,100513.00
2022-12-18T21:46:54.999Z,100510.25
2022-12-18T21:49:25.424Z,100493.06
2022-12-18T21:51:54.703Z,100502.41
2022-12-18T21:54:22.120Z,100503.53
2022-12-18T21:56:54.552Z,100499.19
2022-12-18T21:59:27.309Z,100501.94
2022-12-18T22:01:56.558Z,100493.03
2022-12-18T22:04:25.599Z,100487.84
2022-12-18T22:06:52.547Z,100495.88
2022-12-18T22:09:21.425Z,100484.31
2022-12-18T22:11:49.164Z,100475.78
2022-12-18T22:14:19.372Z,100479.28
2022-12-18T22:16:46.859Z,100484.69
2022-12-18T22:19:13.552Z,100485.63
2022-12-18T22:21:45.516Z,100496.81
2022-12-18T22:24:22.436Z,100483.75
2022-12-18T22:26:50.677Z,100488.13
2022-12-18T22:29:38.728Z,100479.38
2022-12-18T22:32:06.810Z,100480.16
2022-12-18T22:34:36.515Z,100475.03
2022-12-18T22:37:03.990Z,100480.09
2022-12-18T22:39:30.702Z,100469.59
2022-12-18T22:41:58.284Z,100466.09
2022-12-18T22:44:25.106Z,100466.28
2022-12-18T22:47:06.487Z,100466.28
2022-12-18T22:49:34.955Z,100465.28
2022-12-18T22:52:06.731Z,100449.72
2022-12-18T22:54:33.493Z,100452.34
2022-12-18T22:57:00.066Z,100447.84
2022-12-18T22:59:26.725Z,100453.06
2022-12-18T23:01:58.829Z,100433.69
2022-12-18T23:04:36.072Z,100431.16
2022-12-18T23:07:07.746Z,100423.38
2022-12-18T23:09:34.731Z,100428.69
2022-12-18T23:12:01.545Z,100425.13
2022-12-18T23:14:29.202Z,100417.22
2022-12-18T23:16:56.299Z,100406.72
2022-12-18T23:19:23.814Z,100409.41
2022-12-18T23:21:51.407Z,100400.53
2022-12-18T23:24:18.192Z,100391.91
2022-12-18T23:26:44.903Z,100390.34
2022-12-18T23:29:11.527Z,100386.22
2022-12-18T23:31:39.533Z,100388.66
2022-12-18T23:34:07.051Z,100379.81
2022-12-18T23:36:46.034Z,100384.44
2022-12-18T23:39:22.394Z,100381.72
2022-12-18T23:41:58.826Z,100382.81
2022-12-18T23:44:25.653Z,100369.78
2022-12-18T23:46:52.755Z,100363.66
2022-12-18T23:49:19.483Z,100359.19
2022-12-18T23:51:46.069Z,100350.78
2022-12-18T23:54:12.685Z,100349.03
2022-12-18T23:56:39.263Z,100339.31
2022-12-18T23:59:05.984Z,100327.28
